An Run Da 2 — BHNX — position and weather

sailwx.info

Track history (hours):
 
Tides and Currents Weather Stations Pressure Air Temp Water Temp Dewpoint Dewpoint Depression Visibility Wind Speed Wind Dir Waves Ship Positions

An Run Da 2

Last reported at 2017-Mar-17 01:33 UTC. Time now 2017-Mar-26 15:22 UTC.
Position N 32°02' E 120°28'.
Warning: this ship's position is 9 days out of date.

Length 147 m; draft 8.5 m.

MMSI: 413360230.

Date/timePositionNaut miles runAvg speedWind from/ knotsBaromVisibWave heightAir tempDewpointWater temp
2017-Mar-17 01:33N 32°02' E 120°28'28 6.4
2017-Mar-16 21:14N 31°48' E 120°56'910.1
2017-Mar-16 20:22N 31°45' E 121°06'911.6
2017-Mar-16 19:33N 31°39' E 121°14'2611.7
2017-Mar-16 17:19N 31°22' E 121°37'810.2
2017-Mar-16 16:33N 31°18' E 121°46'1110.6
2017-Mar-16 15:33N 31°15' E 121°57'1010.1
2017-Mar-16 14:33N 31°12' E 122°09'9 8.8
2017-Mar-16 13:33N 31°07' E 122°17'393 8.2
2017-Mar-14 13:33N 37°40' E 122°09'10 9.9
2017-Mar-14 12:33N 37°43' E 121°58'10 9.8
2017-Mar-14 11:33N 37°46' E 121°46'1010.1
2017-Mar-14 10:33N 37°50' E 121°34'1010.2
2017-Mar-14 09:33N 37°53' E 121°22'  
Track history (hours):
 
Tides and Currents Weather Stations Pressure Air Temp Water Temp Dewpoint Dewpoint Depression Visibility Wind Speed Wind Dir Waves Ship Positions

An Run Da 2

Last reported at 2017-Mar-17 01:33 UTC. Time now 2017-Mar-26 15:22 UTC.
Position N 32°02' E 120°28'.
Warning: this ship's position is 9 days out of date.

Length 147 m; draft 8.5 m.

MMSI: 413360230.

Date/timePositionNaut miles runAvg speedWind from/ knotsBaromVisibWave heightAir tempDewpointWater temp
2017-Mar-17 01:33N 32°02' E 120°28'28 6.4
2017-Mar-16 21:14N 31°48' E 120°56'910.1
2017-Mar-16 20:22N 31°45' E 121°06'911.6
2017-Mar-16 19:33N 31°39' E 121°14'2611.7
2017-Mar-16 17:19N 31°22' E 121°37'810.2
2017-Mar-16 16:33N 31°18' E 121°46'1110.6
2017-Mar-16 15:33N 31°15' E 121°57'1010.1
2017-Mar-16 14:33N 31°12' E 122°09'9 8.8
2017-Mar-16 13:33N 31°07' E 122°17'393 8.2
2017-Mar-14 13:33N 37°40' E 122°09'10 9.9
2017-Mar-14 12:33N 37°43' E 121°58'10 9.8
2017-Mar-14 11:33N 37°46' E 121°46'1010.1
2017-Mar-14 10:33N 37°50' E 121°34'1010.2
2017-Mar-14 09:33N 37°53' E 121°22'  

Dump ship's entire track history